sensor_id;sensor_type;location;lat;lon;timestamp;P1;durP1;ratioP1;P2;durP2;ratioP2
48627;SDS011;34424;52.234;6.500;2022-10-16T00:00:47;10.45;;;7.15;;
48627;SDS011;34424;52.234;6.500;2022-10-16T00:05:51;10.30;;;6.38;;
48627;SDS011;34424;52.234;6.500;2022-10-16T00:10:58;8.57;;;5.90;;
48627;SDS011;34424;52.234;6.500;2022-10-16T00:16:00;10.13;;;5.47;;
48627;SDS011;34424;52.234;6.500;2022-10-16T00:21:04;9.73;;;5.77;;
48627;SDS011;34424;52.234;6.500;2022-10-16T00:26:08;11.13;;;6.28;;
48627;SDS011;34424;52.234;6.500;2022-10-16T00:31:11;10.25;;;6.53;;
48627;SDS011;34424;52.234;6.500;2022-10-16T00:36:16;6.83;;;5.13;;
48627;SDS011;34424;52.234;6.500;2022-10-16T00:41:19;8.55;;;5.40;;
48627;SDS011;34424;52.234;6.500;2022-10-16T00:46:23;9.30;;;6.63;;
48627;SDS011;34424;52.234;6.500;2022-10-16T00:51:28;9.85;;;5.70;;
48627;SDS011;34424;52.234;6.500;2022-10-16T00:56:32;11.25;;;6.07;;
48627;SDS011;34424;52.234;6.500;2022-10-16T01:01:36;8.55;;;6.28;;
48627;SDS011;34424;52.234;6.500;2022-10-16T01:11:44;10.90;;;5.93;;
48627;SDS011;34424;52.234;6.500;2022-10-16T01:16:48;11.68;;;6.25;;
48627;SDS011;34424;52.234;6.500;2022-10-16T01:21:51;8.98;;;6.05;;
48627;SDS011;34424;52.234;6.500;2022-10-16T01:27:02;8.38;;;6.95;;
48627;SDS011;34424;52.234;6.500;2022-10-16T01:32:07;12.60;;;6.85;;
48627;SDS011;34424;52.234;6.500;2022-10-16T01:37:13;10.32;;;7.05;;
48627;SDS011;34424;52.234;6.500;2022-10-16T01:42:20;10.70;;;8.05;;
48627;SDS011;34424;52.234;6.500;2022-10-16T01:47:24;11.70;;;7.65;;
48627;SDS011;34424;52.234;6.500;2022-10-16T01:52:28;12.10;;;8.55;;
48627;SDS011;34424;52.234;6.500;2022-10-16T02:02:35;11.13;;;8.38;;
48627;SDS011;34424;52.234;6.500;2022-10-16T02:07:38;16.63;;;9.35;;
48627;SDS011;34424;52.234;6.500;2022-10-16T02:12:43;13.05;;;9.98;;
48627;SDS011;34424;52.234;6.500;2022-10-16T02:17:48;13.90;;;10.15;;
48627;SDS011;34424;52.234;6.500;2022-10-16T02:22:51;19.92;;;10.98;;
48627;SDS011;34424;52.234;6.500;2022-10-16T02:27:54;12.02;;;9.65;;
48627;SDS011;34424;52.234;6.500;2022-10-16T02:33:00;14.32;;;10.10;;
48627;SDS011;34424;52.234;6.500;2022-10-16T02:38:03;17.73;;;9.80;;
48627;SDS011;34424;52.234;6.500;2022-10-16T02:48:10;13.82;;;10.13;;
48627;SDS011;34424;52.234;6.500;2022-10-16T02:53:12;14.07;;;9.82;;
48627;SDS011;34424;52.234;6.500;2022-10-16T02:58:15;9.47;;;8.00;;
48627;SDS011;34424;52.234;6.500;2022-10-16T03:03:19;10.50;;;7.87;;
48627;SDS011;34424;52.234;6.500;2022-10-16T03:08:21;11.35;;;7.82;;
48627;SDS011;34424;52.234;6.500;2022-10-16T03:13:26;10.95;;;7.43;;
48627;SDS011;34424;52.234;6.500;2022-10-16T03:18:30;8.73;;;6.67;;
48627;SDS011;34424;52.234;6.500;2022-10-16T03:23:32;7.45;;;6.10;;
48627;SDS011;34424;52.234;6.500;2022-10-16T03:28:35;9.73;;;5.68;;
48627;SDS011;34424;52.234;6.500;2022-10-16T03:33:39;8.80;;;6.33;;
48627;SDS011;34424;52.234;6.500;2022-10-16T03:38:41;7.53;;;4.93;;
48627;SDS011;34424;52.234;6.500;2022-10-16T03:43:43;7.18;;;5.38;;
48627;SDS011;34424;52.234;6.500;2022-10-16T03:48:47;9.90;;;6.07;;
48627;SDS011;34424;52.234;6.500;2022-10-16T03:53:50;5.95;;;5.35;;
48627;SDS011;34424;52.234;6.500;2022-10-16T03:58:52;7.37;;;5.57;;
48627;SDS011;34424;52.234;6.500;2022-10-16T04:03:56;6.73;;;4.80;;
48627;SDS011;34424;52.234;6.500;2022-10-16T04:08:59;7.82;;;5.53;;
48627;SDS011;34424;52.234;6.500;2022-10-16T04:14:01;7.03;;;4.90;;
48627;SDS011;34424;52.234;6.500;2022-10-16T04:19:05;7.07;;;5.15;;
48627;SDS011;34424;52.234;6.500;2022-10-16T04:24:07;9.18;;;5.28;;
48627;SDS011;34424;52.234;6.500;2022-10-16T04:29:09;7.90;;;5.50;;
48627;SDS011;34424;52.234;6.500;2022-10-16T04:34:14;5.78;;;5.05;;
48627;SDS011;34424;52.234;6.500;2022-10-16T04:39:17;8.23;;;5.32;;
48627;SDS011;34424;52.234;6.500;2022-10-16T04:49:24;9.20;;;5.40;;
48627;SDS011;34424;52.234;6.500;2022-10-16T04:54:26;5.88;;;5.07;;
48627;SDS011;34424;52.234;6.500;2022-10-16T04:59:29;6.97;;;4.90;;
48627;SDS011;34424;52.234;6.500;2022-10-16T05:04:33;6.35;;;5.18;;
48627;SDS011;34424;52.234;6.500;2022-10-16T05:09:35;7.43;;;4.95;;
48627;SDS011;34424;52.234;6.500;2022-10-16T05:14:38;5.23;;;4.73;;
48627;SDS011;34424;52.234;6.500;2022-10-16T05:19:41;6.13;;;4.32;;
48627;SDS011;34424;52.234;6.500;2022-10-16T05:24:45;5.93;;;4.88;;
48627;SDS011;34424;52.234;6.500;2022-10-16T05:29:48;6.47;;;4.80;;
48627;SDS011;34424;52.234;6.500;2022-10-16T05:40:16;6.70;;;4.93;;
48627;SDS011;34424;52.234;6.500;2022-10-16T05:45:18;8.32;;;4.40;;
48627;SDS011;34424;52.234;6.500;2022-10-16T05:50:20;5.13;;;4.30;;
48627;SDS011;34424;52.234;6.500;2022-10-16T05:55:25;6.30;;;4.20;;
48627;SDS011;34424;52.234;6.500;2022-10-16T06:00:28;5.63;;;4.47;;
48627;SDS011;34424;52.234;6.500;2022-10-16T06:05:31;6.43;;;4.73;;
48627;SDS011;34424;52.234;6.500;2022-10-16T06:10:36;6.32;;;4.60;;
48627;SDS011;34424;52.234;6.500;2022-10-16T06:15:38;7.75;;;5.38;;
48627;SDS011;34424;52.234;6.500;2022-10-16T06:20:42;9.43;;;5.68;;
48627;SDS011;34424;52.234;6.500;2022-10-16T06:25:46;7.88;;;6.20;;
48627;SDS011;34424;52.234;6.500;2022-10-16T06:30:49;7.05;;;5.88;;
48627;SDS011;34424;52.234;6.500;2022-10-16T06:36:10;9.05;;;6.22;;
48627;SDS011;34424;52.234;6.500;2022-10-16T06:41:15;5.72;;;4.50;;
48627;SDS011;34424;52.234;6.500;2022-10-16T06:46:18;5.63;;;5.13;;
48627;SDS011;34424;52.234;6.500;2022-10-16T06:56:25;4.22;;;3.72;;
48627;SDS011;34424;52.234;6.500;2022-10-16T07:01:29;4.95;;;3.58;;
48627;SDS011;34424;52.234;6.500;2022-10-16T07:06:33;7.68;;;3.38;;
48627;SDS011;34424;52.234;6.500;2022-10-16T07:11:37;5.32;;;2.90;;
48627;SDS011;34424;52.234;6.500;2022-10-16T07:16:40;5.93;;;2.58;;
48627;SDS011;34424;52.234;6.500;2022-10-16T07:21:43;5.75;;;3.38;;
48627;SDS011;34424;52.234;6.500;2022-10-16T07:26:47;5.63;;;3.45;;
48627;SDS011;34424;52.234;6.500;2022-10-16T07:31:50;6.10;;;2.70;;
48627;SDS011;34424;52.234;6.500;2022-10-16T07:36:52;6.10;;;2.83;;
48627;SDS011;34424;52.234;6.500;2022-10-16T07:42:00;3.10;;;2.43;;
48627;SDS011;34424;52.234;6.500;2022-10-16T07:47:03;2.72;;;2.25;;
48627;SDS011;34424;52.234;6.500;2022-10-16T07:52:06;3.35;;;2.20;;
48627;SDS011;34424;52.234;6.500;2022-10-16T07:57:20;5.70;;;2.37;;
48627;SDS011;34424;52.234;6.500;2022-10-16T08:02:23;3.95;;;3.40;;
48627;SDS011;34424;52.234;6.500;2022-10-16T08:07:27;5.32;;;2.30;;
48627;SDS011;34424;52.234;6.500;2022-10-16T08:12:30;5.00;;;2.35;;
48627;SDS011;34424;52.234;6.500;2022-10-16T08:17:34;3.65;;;2.17;;
48627;SDS011;34424;52.234;6.500;2022-10-16T08:22:39;4.97;;;2.15;;
48627;SDS011;34424;52.234;6.500;2022-10-16T08:27:42;2.65;;;2.25;;
48627;SDS011;34424;52.234;6.500;2022-10-16T08:32:45;3.58;;;2.45;;
48627;SDS011;34424;52.234;6.500;2022-10-16T08:37:49;5.15;;;2.20;;
48627;SDS011;34424;52.234;6.500;2022-10-16T08:42:56;2.75;;;2.38;;
48627;SDS011;34424;52.234;6.500;2022-10-16T08:48:09;3.72;;;2.55;;
48627;SDS011;34424;52.234;6.500;2022-10-16T08:53:17;4.95;;;2.70;;
48627;SDS011;34424;52.234;6.500;2022-10-16T08:58:22;6.35;;;2.55;;
48627;SDS011;34424;52.234;6.500;2022-10-16T09:03:32;4.20;;;2.35;;
48627;SDS011;34424;52.234;6.500;2022-10-16T09:08:40;4.97;;;2.60;;
48627;SDS011;34424;52.234;6.500;2022-10-16T09:13:49;4.65;;;2.72;;
48627;SDS011;34424;52.234;6.500;2022-10-16T09:18:54;6.35;;;2.20;;
48627;SDS011;34424;52.234;6.500;2022-10-16T09:23:58;3.10;;;2.28;;
48627;SDS011;34424;52.234;6.500;2022-10-16T09:29:03;3.50;;;1.90;;
48627;SDS011;34424;52.234;6.500;2022-10-16T09:34:20;4.22;;;2.47;;
48627;SDS011;34424;52.234;6.500;2022-10-16T09:39:23;3.00;;;2.10;;
48627;SDS011;34424;52.234;6.500;2022-10-16T09:44:28;4.97;;;2.35;;
48627;SDS011;34424;52.234;6.500;2022-10-16T09:49:31;4.28;;;2.00;;
48627;SDS011;34424;52.234;6.500;2022-10-16T09:59:45;3.92;;;2.10;;
48627;SDS011;34424;52.234;6.500;2022-10-16T10:04:48;4.28;;;1.90;;
48627;SDS011;34424;52.234;6.500;2022-10-16T10:09:52;3.58;;;2.42;;
48627;SDS011;34424;52.234;6.500;2022-10-16T10:14:56;4.32;;;2.33;;
48627;SDS011;34424;52.234;6.500;2022-10-16T10:20:00;3.15;;;1.88;;
48627;SDS011;34424;52.234;6.500;2022-10-16T10:25:19;7.65;;;2.33;;
48627;SDS011;34424;52.234;6.500;2022-10-16T10:30:26;3.10;;;1.88;;
48627;SDS011;34424;52.234;6.500;2022-10-16T10:35:31;5.18;;;1.92;;
48627;SDS011;34424;52.234;6.500;2022-10-16T10:40:40;5.03;;;2.05;;
48627;SDS011;34424;52.234;6.500;2022-10-16T10:45:48;8.55;;;2.45;;
48627;SDS011;34424;52.234;6.500;2022-10-16T10:50:52;6.28;;;1.60;;
48627;SDS011;34424;52.234;6.500;2022-10-16T10:55:59;5.55;;;2.35;;
48627;SDS011;34424;52.234;6.500;2022-10-16T11:01:06;7.65;;;2.83;;
48627;SDS011;34424;52.234;6.500;2022-10-16T11:06:11;6.20;;;1.88;;
48627;SDS011;34424;52.234;6.500;2022-10-16T11:11:16;5.70;;;2.42;;
48627;SDS011;34424;52.234;6.500;2022-10-16T11:16:24;5.53;;;2.00;;
48627;SDS011;34424;52.234;6.500;2022-10-16T11:21:29;7.75;;;2.10;;
48627;SDS011;34424;52.234;6.500;2022-10-16T11:26:33;5.85;;;2.10;;
48627;SDS011;34424;52.234;6.500;2022-10-16T11:31:41;5.72;;;1.92;;
48627;SDS011;34424;52.234;6.500;2022-10-16T11:36:49;6.57;;;2.35;;
48627;SDS011;34424;52.234;6.500;2022-10-16T11:41:53;6.35;;;2.00;;
48627;SDS011;34424;52.234;6.500;2022-10-16T11:47:05;8.15;;;1.98;;
48627;SDS011;34424;52.234;6.500;2022-10-16T11:52:30;10.20;;;2.83;;
48627;SDS011;34424;52.234;6.500;2022-10-16T11:57:38;6.85;;;1.55;;
48627;SDS011;34424;52.234;6.500;2022-10-16T12:02:47;8.25;;;2.10;;
48627;SDS011;34424;52.234;6.500;2022-10-16T12:07:55;8.25;;;3.72;;
48627;SDS011;34424;52.234;6.500;2022-10-16T12:13:02;8.20;;;2.92;;
48627;SDS011;34424;52.234;6.500;2022-10-16T12:18:18;6.40;;;2.15;;
48627;SDS011;34424;52.234;6.500;2022-10-16T12:23:23;8.27;;;2.35;;
48627;SDS011;34424;52.234;6.500;2022-10-16T12:28:27;7.60;;;2.00;;
48627;SDS011;34424;52.234;6.500;2022-10-16T12:33:32;5.32;;;1.95;;
48627;SDS011;34424;52.234;6.500;2022-10-16T12:38:36;8.32;;;1.98;;
48627;SDS011;34424;52.234;6.500;2022-10-16T12:43:39;5.72;;;2.45;;
48627;SDS011;34424;52.234;6.500;2022-10-16T12:48:45;8.80;;;2.17;;
48627;SDS011;34424;52.234;6.500;2022-10-16T12:54:11;6.17;;;2.27;;
48627;SDS011;34424;52.234;6.500;2022-10-16T12:59:17;7.32;;;2.78;;
48627;SDS011;34424;52.234;6.500;2022-10-16T13:04:31;5.60;;;2.55;;
48627;SDS011;34424;52.234;6.500;2022-10-16T13:09:43;7.40;;;2.00;;
48627;SDS011;34424;52.234;6.500;2022-10-16T13:14:56;10.30;;;2.45;;
48627;SDS011;34424;52.234;6.500;2022-10-16T13:20:12;6.60;;;1.98;;
48627;SDS011;34424;52.234;6.500;2022-10-16T13:25:18;6.80;;;1.97;;
48627;SDS011;34424;52.234;6.500;2022-10-16T13:30:24;5.85;;;1.67;;
48627;SDS011;34424;52.234;6.500;2022-10-16T13:35:34;8.18;;;2.33;;
48627;SDS011;34424;52.234;6.500;2022-10-16T13:40:37;4.38;;;1.52;;
48627;SDS011;34424;52.234;6.500;2022-10-16T13:45:53;4.82;;;2.00;;
48627;SDS011;34424;52.234;6.500;2022-10-16T13:51:05;7.97;;;2.35;;
48627;SDS011;34424;52.234;6.500;2022-10-16T13:56:10;7.97;;;2.00;;
48627;SDS011;34424;52.234;6.500;2022-10-16T14:01:15;5.65;;;1.92;;
48627;SDS011;34424;52.234;6.500;2022-10-16T14:06:20;6.07;;;2.78;;
48627;SDS011;34424;52.234;6.500;2022-10-16T14:11:24;7.47;;;1.92;;
48627;SDS011;34424;52.234;6.500;2022-10-16T14:16:27;11.80;;;1.90;;
48627;SDS011;34424;52.234;6.500;2022-10-16T14:21:32;5.50;;;2.47;;
48627;SDS011;34424;52.234;6.500;2022-10-16T14:26:40;7.35;;;1.98;;
48627;SDS011;34424;52.234;6.500;2022-10-16T14:31:54;6.13;;;1.95;;
48627;SDS011;34424;52.234;6.500;2022-10-16T14:36:59;6.90;;;2.10;;
48627;SDS011;34424;52.234;6.500;2022-10-16T14:42:11;3.67;;;2.47;;
48627;SDS011;34424;52.234;6.500;2022-10-16T14:47:16;4.72;;;1.90;;
48627;SDS011;34424;52.234;6.500;2022-10-16T14:52:24;8.70;;;3.08;;
48627;SDS011;34424;52.234;6.500;2022-10-16T14:57:27;6.88;;;2.25;;
48627;SDS011;34424;52.234;6.500;2022-10-16T15:02:32;6.97;;;2.08;;
48627;SDS011;34424;52.234;6.500;2022-10-16T15:07:36;6.57;;;2.15;;
48627;SDS011;34424;52.234;6.500;2022-10-16T15:12:38;9.15;;;3.28;;
48627;SDS011;34424;52.234;6.500;2022-10-16T15:17:41;4.00;;;2.45;;
48627;SDS011;34424;52.234;6.500;2022-10-16T15:22:45;6.68;;;2.75;;
48627;SDS011;34424;52.234;6.500;2022-10-16T15:27:48;11.18;;;2.85;;
48627;SDS011;34424;52.234;6.500;2022-10-16T15:32:51;9.70;;;2.60;;
48627;SDS011;34424;52.234;6.500;2022-10-16T15:37:56;7.80;;;2.60;;
48627;SDS011;34424;52.234;6.500;2022-10-16T15:42:58;5.22;;;2.22;;
48627;SDS011;34424;52.234;6.500;2022-10-16T15:48:00;5.63;;;2.17;;
48627;SDS011;34424;52.234;6.500;2022-10-16T15:53:04;6.57;;;2.67;;
48627;SDS011;34424;52.234;6.500;2022-10-16T15:58:07;7.82;;;3.40;;
48627;SDS011;34424;52.234;6.500;2022-10-16T16:03:10;7.53;;;4.65;;
48627;SDS011;34424;52.234;6.500;2022-10-16T16:08:14;7.97;;;3.63;;
48627;SDS011;34424;52.234;6.500;2022-10-16T16:13:16;10.85;;;3.60;;
48627;SDS011;34424;52.234;6.500;2022-10-16T16:18:19;8.07;;;5.18;;
48627;SDS011;34424;52.234;6.500;2022-10-16T16:23:23;10.10;;;4.00;;
48627;SDS011;34424;52.234;6.500;2022-10-16T16:28:26;4.88;;;2.50;;
48627;SDS011;34424;52.234;6.500;2022-10-16T16:33:29;7.03;;;2.25;;
48627;SDS011;34424;52.234;6.500;2022-10-16T16:38:38;13.25;;;10.48;;
48627;SDS011;34424;52.234;6.500;2022-10-16T16:43:40;11.40;;;9.35;;
48627;SDS011;34424;52.234;6.500;2022-10-16T16:48:43;12.15;;;8.63;;
48627;SDS011;34424;52.234;6.500;2022-10-16T16:53:47;9.20;;;7.05;;
48627;SDS011;34424;52.234;6.500;2022-10-16T16:58:51;17.23;;;10.68;;
48627;SDS011;34424;52.234;6.500;2022-10-16T17:03:55;9.98;;;5.15;;
48627;SDS011;34424;52.234;6.500;2022-10-16T17:09:01;7.55;;;3.97;;
48627;SDS011;34424;52.234;6.500;2022-10-16T17:14:06;10.52;;;3.90;;
48627;SDS011;34424;52.234;6.500;2022-10-16T17:19:10;7.82;;;4.25;;
48627;SDS011;34424;52.234;6.500;2022-10-16T17:24:14;12.07;;;5.20;;
48627;SDS011;34424;52.234;6.500;2022-10-16T17:29:18;10.48;;;8.45;;
48627;SDS011;34424;52.234;6.500;2022-10-16T17:34:22;14.70;;;12.83;;
48627;SDS011;34424;52.234;6.500;2022-10-16T17:44:29;11.63;;;5.18;;
48627;SDS011;34424;52.234;6.500;2022-10-16T17:49:31;8.40;;;4.75;;
48627;SDS011;34424;52.234;6.500;2022-10-16T17:54:34;14.07;;;12.57;;
48627;SDS011;34424;52.234;6.500;2022-10-16T17:59:38;12.97;;;6.67;;
48627;SDS011;34424;52.234;6.500;2022-10-16T18:04:40;10.45;;;5.53;;
48627;SDS011;34424;52.234;6.500;2022-10-16T18:09:43;19.50;;;8.50;;
48627;SDS011;34424;52.234;6.500;2022-10-16T18:15:07;13.68;;;8.40;;
48627;SDS011;34424;52.234;6.500;2022-10-16T18:20:12;11.10;;;5.55;;
48627;SDS011;34424;52.234;6.500;2022-10-16T18:25:14;13.70;;;5.33;;
48627;SDS011;34424;52.234;6.500;2022-10-16T18:30:19;8.50;;;4.53;;
48627;SDS011;34424;52.234;6.500;2022-10-16T18:40:43;14.50;;;7.97;;
48627;SDS011;34424;52.234;6.500;2022-10-16T18:45:54;17.63;;;11.77;;
48627;SDS011;34424;52.234;6.500;2022-10-16T18:51:04;28.63;;;18.40;;
48627;SDS011;34424;52.234;6.500;2022-10-16T18:56:07;23.42;;;16.33;;
48627;SDS011;34424;52.234;6.500;2022-10-16T19:01:13;17.87;;;8.13;;
48627;SDS011;34424;52.234;6.500;2022-10-16T19:06:17;10.55;;;5.63;;
48627;SDS011;34424;52.234;6.500;2022-10-16T19:11:20;8.03;;;5.37;;
48627;SDS011;34424;52.234;6.500;2022-10-16T19:16:25;12.30;;;5.00;;
48627;SDS011;34424;52.234;6.500;2022-10-16T19:21:28;11.52;;;5.47;;
48627;SDS011;34424;52.234;6.500;2022-10-16T19:26:33;11.50;;;5.72;;
48627;SDS011;34424;52.234;6.500;2022-10-16T19:31:42;8.95;;;4.90;;
48627;SDS011;34424;52.234;6.500;2022-10-16T19:36:47;11.05;;;6.70;;
48627;SDS011;34424;52.234;6.500;2022-10-16T19:47:22;11.00;;;6.40;;
48627;SDS011;34424;52.234;6.500;2022-10-16T19:52:25;10.63;;;6.40;;
48627;SDS011;34424;52.234;6.500;2022-10-16T19:57:28;7.07;;;6.07;;
48627;SDS011;34424;52.234;6.500;2022-10-16T20:02:32;14.93;;;6.13;;
48627;SDS011;34424;52.234;6.500;2022-10-16T20:07:35;7.10;;;5.22;;
48627;SDS011;34424;52.234;6.500;2022-10-16T20:12:40;7.50;;;4.72;;
48627;SDS011;34424;52.234;6.500;2022-10-16T20:17:45;7.30;;;4.28;;
48627;SDS011;34424;52.234;6.500;2022-10-16T20:22:51;7.45;;;4.28;;
48627;SDS011;34424;52.234;6.500;2022-10-16T20:27:53;7.78;;;4.72;;
48627;SDS011;34424;52.234;6.500;2022-10-16T20:32:57;7.47;;;4.73;;
48627;SDS011;34424;52.234;6.500;2022-10-16T20:38:01;5.30;;;4.70;;
48627;SDS011;34424;52.234;6.500;2022-10-16T20:43:04;9.48;;;4.45;;
48627;SDS011;34424;52.234;6.500;2022-10-16T20:48:10;11.40;;;4.80;;
48627;SDS011;34424;52.234;6.500;2022-10-16T20:53:13;11.90;;;5.70;;
48627;SDS011;34424;52.234;6.500;2022-10-16T20:58:17;9.83;;;5.97;;
48627;SDS011;34424;52.234;6.500;2022-10-16T21:03:21;6.57;;;4.70;;
48627;SDS011;34424;52.234;6.500;2022-10-16T21:08:24;6.35;;;5.28;;
48627;SDS011;34424;52.234;6.500;2022-10-16T21:13:26;8.63;;;5.23;;
48627;SDS011;34424;52.234;6.500;2022-10-16T21:18:32;7.13;;;5.07;;
48627;SDS011;34424;52.234;6.500;2022-10-16T21:23:34;10.13;;;5.85;;
48627;SDS011;34424;52.234;6.500;2022-10-16T21:28:38;9.83;;;5.27;;
48627;SDS011;34424;52.234;6.500;2022-10-16T21:33:42;8.30;;;5.68;;
48627;SDS011;34424;52.234;6.500;2022-10-16T21:38:45;8.00;;;5.53;;
48627;SDS011;34424;52.234;6.500;2022-10-16T21:43:47;7.20;;;5.90;;
48627;SDS011;34424;52.234;6.500;2022-10-16T21:48:52;6.93;;;5.60;;
48627;SDS011;34424;52.234;6.500;2022-10-16T21:53:55;6.72;;;6.03;;
48627;SDS011;34424;52.234;6.500;2022-10-16T21:58:57;9.63;;;5.90;;
48627;SDS011;34424;52.234;6.500;2022-10-16T22:04:01;10.83;;;6.57;;
48627;SDS011;34424;52.234;6.500;2022-10-16T22:09:06;7.28;;;6.07;;
48627;SDS011;34424;52.234;6.500;2022-10-16T22:14:09;6.72;;;5.97;;
48627;SDS011;34424;52.234;6.500;2022-10-16T22:19:14;8.98;;;6.45;;
48627;SDS011;34424;52.234;6.500;2022-10-16T22:24:17;7.43;;;5.82;;
48627;SDS011;34424;52.234;6.500;2022-10-16T22:29:20;8.85;;;6.75;;
48627;SDS011;34424;52.234;6.500;2022-10-16T22:34:23;7.27;;;6.67;;
48627;SDS011;34424;52.234;6.500;2022-10-16T22:39:29;13.77;;;7.38;;
48627;SDS011;34424;52.234;6.500;2022-10-16T22:44:32;11.20;;;7.25;;
48627;SDS011;34424;52.234;6.500;2022-10-16T22:49:36;9.50;;;7.75;;
48627;SDS011;34424;52.234;6.500;2022-10-16T22:54:38;9.77;;;8.40;;
48627;SDS011;34424;52.234;6.500;2022-10-16T22:59:41;9.30;;;7.83;;
48627;SDS011;34424;52.234;6.500;2022-10-16T23:04:46;9.77;;;8.77;;
48627;SDS011;34424;52.234;6.500;2022-10-16T23:09:48;12.35;;;8.70;;
48627;SDS011;34424;52.234;6.500;2022-10-16T23:14:52;10.23;;;9.20;;
48627;SDS011;34424;52.234;6.500;2022-10-16T23:19:56;13.45;;;10.15;;
48627;SDS011;34424;52.234;6.500;2022-10-16T23:24:58;11.55;;;9.85;;
48627;SDS011;34424;52.234;6.500;2022-10-16T23:30:02;13.40;;;10.50;;
48627;SDS011;34424;52.234;6.500;2022-10-16T23:35:08;16.08;;;11.48;;
48627;SDS011;34424;52.234;6.500;2022-10-16T23:40:11;14.93;;;11.38;;
48627;SDS011;34424;52.234;6.500;2022-10-16T23:45:13;13.57;;;11.27;;
48627;SDS011;34424;52.234;6.500;2022-10-16T23:50:17;13.27;;;11.40;;
48627;SDS011;34424;52.234;6.500;2022-10-16T23:55:21;15.23;;;11.48;;
